createdAt,value
2023-04-09T00:00:55.497Z,91.80
2023-04-09T00:03:23.464Z,91.80
2023-04-09T00:05:52.270Z,91.50
2023-04-09T00:08:24.151Z,91.40
2023-04-09T00:10:52.291Z,90.90
2023-04-09T00:13:25.463Z,90.90
2023-04-09T00:16:04.126Z,91.20
2023-04-09T00:18:31.840Z,90.90
2023-04-09T00:20:59.489Z,90.60
2023-04-09T00:23:27.342Z,90.30
2023-04-09T00:25:55.021Z,90.20
2023-04-09T00:28:22.607Z,89.40
2023-04-09T00:30:50.433Z,89.50
2023-04-09T00:33:18.168Z,89.50
2023-04-09T00:35:45.964Z,89.20
2023-04-09T00:38:14.365Z,89.30
2023-04-09T00:40:42.212Z,89.20
2023-04-09T00:43:09.867Z,88.70
2023-04-09T00:45:37.614Z,88.20
2023-04-09T00:48:05.344Z,87.60
2023-04-09T00:50:32.935Z,87.90
2023-04-09T00:53:00.704Z,87.60
2023-04-09T00:55:28.512Z,86.70
2023-04-09T00:57:56.123Z,87.20
2023-04-09T01:00:24.104Z,87.60
2023-04-09T01:02:51.864Z,87.50
2023-04-09T01:05:19.668Z,87.70
2023-04-09T01:07:47.405Z,87.80
2023-04-09T01:10:15.016Z,87.00
2023-04-09T01:12:42.671Z,87.30
2023-04-09T01:15:10.370Z,86.00
2023-04-09T01:17:37.934Z,85.10
2023-04-09T01:20:05.512Z,85.30
2023-04-09T01:22:50.323Z,85.20
2023-04-09T01:25:18.437Z,85.30
2023-04-09T01:27:46.013Z,85.10
2023-04-09T01:30:13.956Z,84.80
2023-04-09T01:32:44.369Z,85.00
2023-04-09T01:35:12.110Z,84.70
2023-04-09T01:37:39.950Z,84.80
2023-04-09T01:40:07.559Z,83.90
2023-04-09T01:42:35.391Z,84.00
2023-04-09T01:45:03.115Z,84.20
2023-04-09T01:47:30.820Z,84.20
2023-04-09T01:49:58.429Z,84.30
2023-04-09T01:52:27.052Z,83.40
2023-04-09T01:54:54.663Z,83.10
2023-04-09T01:57:22.238Z,83.10
2023-04-09T01:59:49.904Z,82.40
2023-04-09T02:02:17.614Z,82.00
2023-04-09T02:04:45.476Z,82.10
2023-04-09T02:07:13.279Z,82.70
2023-04-09T02:09:40.894Z,82.50
2023-04-09T02:12:08.524Z,80.40
2023-04-09T02:14:36.340Z,80.90
2023-04-09T02:17:03.994Z,80.70
2023-04-09T02:19:31.782Z,82.50
2023-04-09T02:21:59.591Z,82.00
2023-04-09T02:24:27.158Z,80.70
2023-04-09T02:26:54.771Z,80.70
2023-04-09T02:29:22.707Z,81.70
2023-04-09T02:31:50.347Z,81.50
2023-04-09T02:34:17.948Z,81.70
2023-04-09T02:36:45.877Z,80.20
2023-04-09T02:39:13.468Z,80.50
2023-04-09T02:41:41.041Z,80.50
2023-04-09T02:44:09.090Z,79.50
2023-04-09T02:46:36.716Z,78.60
2023-04-09T02:49:05.256Z,78.70
2023-04-09T02:51:33.135Z,78.90
2023-04-09T02:54:00.756Z,78.20
2023-04-09T02:56:28.348Z,79.40
2023-04-09T02:58:56.412Z,80.60
2023-04-09T03:01:24.235Z,79.50
2023-04-09T03:03:52.690Z,79.10
2023-04-09T03:06:20.757Z,80.70
2023-04-09T03:08:48.464Z,80.20
2023-04-09T03:11:16.225Z,80.90
2023-04-09T03:13:44.081Z,82.80
2023-04-09T03:16:11.885Z,81.50
2023-04-09T03:18:39.497Z,80.40
2023-04-09T03:21:07.254Z,82.00
2023-04-09T03:23:34.975Z,79.80
2023-04-09T03:26:02.561Z,80.80
2023-04-09T03:28:30.987Z,81.10
2023-04-09T03:30:59.571Z,80.80
2023-04-09T03:33:27.139Z,81.20
2023-04-09T03:35:55.239Z,81.70
2023-04-09T03:38:23.076Z,81.30
2023-04-09T03:40:50.674Z,80.30
2023-04-09T03:43:18.576Z,78.40
2023-04-09T03:45:46.293Z,78.30
2023-04-09T03:48:14.911Z,78.60
2023-04-09T03:50:42.699Z,77.80
2023-04-09T03:53:11.104Z,76.30
2023-04-09T03:55:39.590Z,78.20
2023-04-09T03:58:07.569Z,78.10
2023-04-09T04:00:35.157Z,77.80
2023-04-09T04:03:03.091Z,76.60
2023-04-09T04:05:31.162Z,75.80
2023-04-09T04:07:58.740Z,75.70
2023-04-09T04:10:26.354Z,75.40
2023-04-09T04:12:54.116Z,76.50
2023-04-09T04:15:21.811Z,78.90
2023-04-09T04:17:49.524Z,76.40
2023-04-09T04:20:17.392Z,76.30
2023-04-09T04:22:45.064Z,75.80
2023-04-09T04:25:12.709Z,75.40
2023-04-09T04:27:40.537Z,75.00
2023-04-09T04:30:10.657Z,74.40
2023-04-09T04:32:38.362Z,74.30
2023-04-09T04:35:06.313Z,73.10
2023-04-09T04:37:33.940Z,74.50
2023-04-09T04:40:01.712Z,76.20
2023-04-09T04:42:30.274Z,75.70
2023-04-09T04:44:57.867Z,74.50
2023-04-09T04:47:25.583Z,74.30
2023-04-09T04:49:54.385Z,74.30
2023-04-09T04:52:22.064Z,74.30
2023-04-09T04:54:49.733Z,73.20
2023-04-09T04:57:18.484Z,72.70
2023-04-09T04:59:46.136Z,72.30
2023-04-09T05:02:13.881Z,72.10
2023-04-09T05:04:42.591Z,72.10
2023-04-09T05:07:10.228Z,71.40
2023-04-09T05:09:37.870Z,70.80
2023-04-09T05:12:06.558Z,71.00
2023-04-09T05:14:34.180Z,71.10
2023-04-09T05:17:01.789Z,71.40
2023-04-09T05:19:29.882Z,70.90
2023-04-09T05:21:57.473Z,70.80
2023-04-09T05:24:25.217Z,70.80
2023-04-09T05:26:53.346Z,70.70
2023-04-09T05:29:20.972Z,70.30
2023-04-09T05:31:48.585Z,70.80
2023-04-09T05:34:17.164Z,70.10
2023-04-09T05:36:44.761Z,69.70
2023-04-09T05:39:24.372Z,70.20
2023-04-09T05:41:52.490Z,70.00
2023-04-09T05:44:20.112Z,69.60
2023-04-09T05:46:47.729Z,69.10
2023-04-09T05:49:16.620Z,68.80
2023-04-09T05:51:44.279Z,68.20
2023-04-09T05:54:11.925Z,68.50
2023-04-09T05:56:40.481Z,68.50
2023-04-09T05:59:08.084Z,68.50
2023-04-09T06:01:35.978Z,69.00
2023-04-09T06:04:04.648Z,69.00
2023-04-09T06:06:32.612Z,69.90
2023-04-09T06:09:00.207Z,68.80
2023-04-09T06:11:28.373Z,68.50
2023-04-09T06:13:55.972Z,68.30
2023-04-09T06:16:23.947Z,67.20
2023-04-09T06:18:52.261Z,68.70
2023-04-09T06:21:20.040Z,68.30
2023-04-09T06:23:47.678Z,67.70
2023-04-09T06:26:16.278Z,67.70
2023-04-09T06:28:44.047Z,66.80
2023-04-09T06:31:12.033Z,66.60
2023-04-09T06:33:40.045Z,66.70
2023-04-09T06:36:09.434Z,67.40
2023-04-09T06:38:37.158Z,67.00
2023-04-09T06:41:05.813Z,66.50
2023-04-09T06:43:33.436Z,66.30
2023-04-09T06:46:01.120Z,66.40
2023-04-09T06:48:30.293Z,66.10
2023-04-09T06:50:57.930Z,66.10
2023-04-09T06:53:25.671Z,66.00
2023-04-09T06:55:56.549Z,67.10
2023-04-09T06:58:25.536Z,66.00
2023-04-09T07:00:53.267Z,66.60
2023-04-09T07:03:23.606Z,66.60
2023-04-09T07:05:51.286Z,66.30
2023-04-09T07:08:18.929Z,66.00
2023-04-09T07:10:46.958Z,66.10
2023-04-09T07:13:15.152Z,66.30
2023-04-09T07:15:43.242Z,66.00
2023-04-09T07:18:12.797Z,65.40
2023-04-09T07:20:40.367Z,64.90
2023-04-09T07:23:07.989Z,65.70
2023-04-09T07:25:36.755Z,65.30
2023-04-09T07:28:04.447Z,65.10
2023-04-09T07:30:32.273Z,65.20
2023-04-09T07:33:00.917Z,65.60
2023-04-09T07:35:28.650Z,65.40
2023-04-09T07:37:56.356Z,64.40
2023-04-09T07:40:24.530Z,65.70
2023-04-09T07:42:52.103Z,64.70
2023-04-09T07:45:19.755Z,64.10
2023-04-09T07:47:47.768Z,64.10
2023-04-09T07:50:15.387Z,65.10
2023-04-09T07:52:43.104Z,64.60
2023-04-09T07:55:12.117Z,64.50
2023-04-09T07:57:39.870Z,64.70
2023-04-09T08:00:07.858Z,64.60
2023-04-09T08:02:36.638Z,65.20
2023-04-09T08:05:04.389Z,66.10
2023-04-09T08:07:32.971Z,65.40
2023-04-09T08:10:01.560Z,65.60
2023-04-09T08:12:29.605Z,65.90
2023-04-09T08:14:57.337Z,65.90
2023-04-09T08:17:26.105Z,66.10
2023-04-09T08:19:53.849Z,65.50
2023-04-09T08:22:21.513Z,65.70
2023-04-09T08:24:49.640Z,66.20
2023-04-09T08:27:17.230Z,66.30
2023-04-09T08:29:44.906Z,66.50
2023-04-09T08:32:13.712Z,66.30
2023-04-09T08:34:41.366Z,65.90
2023-04-09T08:37:08.968Z,65.20
2023-04-09T08:39:37.089Z,65.00
2023-04-09T08:42:04.730Z,65.30
2023-04-09T08:44:32.384Z,65.00
2023-04-09T08:47:00.791Z,64.60
2023-04-09T08:49:28.406Z,65.60
2023-04-09T08:51:56.266Z,65.40
2023-04-09T08:54:25.371Z,65.60
2023-04-09T08:56:53.039Z,65.50
2023-04-09T08:59:20.707Z,65.80
2023-04-09T09:01:49.268Z,65.80
2023-04-09T09:04:16.900Z,65.20
2023-04-09T09:06:45.279Z,65.60
2023-04-09T09:09:13.315Z,66.90
2023-04-09T09:11:40.927Z,66.90
2023-04-09T09:14:12.045Z,67.00
2023-04-09T09:16:41.255Z,67.30
2023-04-09T09:19:08.856Z,66.90
2023-04-09T09:21:36.488Z,67.20
2023-04-09T09:24:05.310Z,67.40
2023-04-09T09:26:33.003Z,67.80
2023-04-09T09:29:00.618Z,68.50
2023-04-09T09:31:28.977Z,68.10
2023-04-09T09:33:56.669Z,68.00
2023-04-09T09:36:24.762Z,67.90
2023-04-09T09:38:53.179Z,67.70
2023-04-09T09:41:21.357Z,68.50
2023-04-09T09:43:48.990Z,68.20
2023-04-09T09:46:17.851Z,68.20
2023-04-09T09:48:45.513Z,68.30
2023-04-09T09:51:13.212Z,68.20
2023-04-09T09:53:41.232Z,68.30
2023-04-09T09:56:08.899Z,68.20
2023-04-09T09:58:36.489Z,68.20
2023-04-09T10:01:05.183Z,68.50
2023-04-09T10:03:33.007Z,69.10
2023-04-09T10:06:03.585Z,69.50
2023-04-09T10:08:32.282Z,69.80
2023-04-09T10:10:59.853Z,70.10
2023-04-09T10:13:27.477Z,70.40
2023-04-09T10:15:55.557Z,70.80
2023-04-09T10:18:23.240Z,71.50
2023-04-09T10:20:50.861Z,71.90
2023-04-09T10:23:18.935Z,71.70
2023-04-09T10:25:46.570Z,72.00
2023-04-09T10:28:14.198Z,72.90
2023-04-09T10:30:42.851Z,72.80
2023-04-09T10:33:10.663Z,72.90
2023-04-09T10:35:38.357Z,73.20
2023-04-09T10:38:06.398Z,73.50
2023-04-09T10:40:33.999Z,74.50
2023-04-09T10:43:01.651Z,74.80
2023-04-09T10:45:29.610Z,75.10
2023-04-09T10:47:57.458Z,75.70
2023-04-09T10:50:25.025Z,76.20
2023-04-09T10:52:53.066Z,76.10
2023-04-09T10:55:20.666Z,76.10
2023-04-09T10:57:48.386Z,76.10
2023-04-09T11:00:16.956Z,76.30
2023-04-09T11:02:44.890Z,76.30
2023-04-09T11:05:12.778Z,76.30
2023-04-09T11:07:40.719Z,76.40
2023-04-09T11:10:08.392Z,76.40
2023-04-09T11:12:35.992Z,76.70
2023-04-09T11:15:19.450Z,77.50
2023-04-09T11:17:47.823Z,77.70
2023-04-09T11:20:15.614Z,77.90
2023-04-09T11:22:44.426Z,78.10
2023-04-09T11:25:12.240Z,78.70
2023-04-09T11:27:39.987Z,79.10
2023-04-09T11:30:08.697Z,79.40
2023-04-09T11:32:36.418Z,79.80
2023-04-09T11:35:04.080Z,80.40
2023-04-09T11:37:32.290Z,81.00
2023-04-09T11:39:59.976Z,81.10
2023-04-09T11:42:27.656Z,81.20
2023-04-09T11:44:56.297Z,82.30
2023-04-09T11:47:23.922Z,82.80
2023-04-09T11:49:51.621Z,83.20
2023-04-09T11:52:20.296Z,83.80
2023-04-09T11:54:47.987Z,83.90
2023-04-09T11:57:15.581Z,83.80
2023-04-09T11:59:44.530Z,84.50
2023-04-09T12:02:12.238Z,83.80
2023-04-09T12:04:39.990Z,83.90
2023-04-09T12:07:08.167Z,84.00
2023-04-09T12:09:35.866Z,83.50
2023-04-09T12:12:03.460Z,84.00
2023-04-09T12:14:31.448Z,84.60
2023-04-09T12:16:59.084Z,85.50
2023-04-09T12:19:26.786Z,86.30
2023-04-09T12:21:54.891Z,87.00
2023-04-09T12:24:22.962Z,87.30
2023-04-09T12:26:50.669Z,87.70
2023-04-09T12:29:18.658Z,88.40
2023-04-09T12:31:46.333Z,89.00
2023-04-09T12:34:13.922Z,89.20
2023-04-09T12:36:42.597Z,88.90
2023-04-09T12:39:10.435Z,89.30
2023-04-09T12:41:38.039Z,89.20
2023-04-09T12:44:06.123Z,89.20
2023-04-09T12:46:33.852Z,89.00
2023-04-09T12:49:01.515Z,89.40
2023-04-09T12:51:29.520Z,89.70
2023-04-09T12:53:57.178Z,89.70
2023-04-09T12:56:24.764Z,90.00
2023-04-09T12:58:53.036Z,90.00
2023-04-09T13:01:20.855Z,89.50
2023-04-09T13:03:48.790Z,89.70
2023-04-09T13:06:16.855Z,89.70
2023-04-09T13:08:44.477Z,89.40
2023-04-09T13:11:12.111Z,89.80
2023-04-09T13:13:42.514Z,90.10
2023-04-09T13:16:10.341Z,90.00
2023-04-09T13:18:37.987Z,90.00
2023-04-09T13:21:06.443Z,90.30
2023-04-09T13:23:34.011Z,90.40
2023-04-09T13:26:01.645Z,90.50
2023-04-09T13:28:29.702Z,90.40
2023-04-09T13:30:57.598Z,90.30
2023-04-09T13:33:25.240Z,90.30
2023-04-09T13:35:53.768Z,90.70
2023-04-09T13:38:21.440Z,90.90
2023-04-09T13:40:49.264Z,90.90
2023-04-09T13:43:17.213Z,90.90
2023-04-09T13:45:44.784Z,91.00
2023-04-09T13:48:14.710Z,90.70
2023-04-09T13:50:43.486Z,90.80
2023-04-09T13:53:11.304Z,90.80
2023-04-09T13:55:38.947Z,91.00
2023-04-09T13:58:07.102Z,90.50
2023-04-09T14:00:34.857Z,90.30
2023-04-09T14:03:02.623Z,90.20
2023-04-09T14:05:31.562Z,90.10
2023-04-09T14:07:59.209Z,90.30
2023-04-09T14:10:26.806Z,90.30
2023-04-09T14:12:55.021Z,90.40
2023-04-09T14:15:22.658Z,90.50
2023-04-09T14:17:50.369Z,90.70
2023-04-09T14:20:19.904Z,90.70
2023-04-09T14:22:47.551Z,90.80
2023-04-09T14:25:15.151Z,91.20
2023-04-09T14:27:44.088Z,91.30
2023-04-09T14:30:11.677Z,91.50
2023-04-09T14:32:39.388Z,91.70
2023-04-09T14:35:09.267Z,91.70
2023-04-09T14:37:36.920Z,92.10
2023-04-09T14:40:04.484Z,92.30
2023-04-09T14:42:32.639Z,91.90
2023-04-09T14:45:00.255Z,92.00
2023-04-09T14:47:28.046Z,91.80
2023-04-09T14:49:56.103Z,91.50
2023-04-09T14:52:23.970Z,91.30
2023-04-09T14:54:51.653Z,91.50
2023-04-09T14:57:19.799Z,91.60
2023-04-09T14:59:47.410Z,91.90
2023-04-09T15:02:15.191Z,92.20
2023-04-09T15:04:43.527Z,92.50
2023-04-09T15:07:11.206Z,92.70
2023-04-09T15:09:38.964Z,93.40
2023-04-09T15:12:07.297Z,93.80
2023-04-09T15:14:34.890Z,94.10
2023-04-09T15:17:03.488Z,94.50
2023-04-09T15:19:31.522Z,94.80
2023-04-09T15:21:59.134Z,94.50
2023-04-09T15:24:26.900Z,94.50
2023-04-09T15:26:55.049Z,95.20
2023-04-09T15:29:22.953Z,95.80
2023-04-09T15:31:50.559Z,96.00
2023-04-09T15:34:19.784Z,96.20
2023-04-09T15:36:47.489Z,96.10
2023-04-09T15:39:15.050Z,95.90
2023-04-09T15:41:43.754Z,96.00
2023-04-09T15:44:11.328Z,96.30
2023-04-09T15:46:38.953Z,96.30
2023-04-09T15:49:06.892Z,96.30
2023-04-09T15:51:34.510Z,95.90
2023-04-09T15:54:02.048Z,96.30
2023-04-09T15:56:30.696Z,96.40
2023-04-09T15:58:58.240Z,96.40
2023-04-09T16:01:26.141Z,96.80
2023-04-09T16:03:54.144Z,97.30
2023-04-09T16:06:21.960Z,97.30
2023-04-09T16:08:49.604Z,97.60
2023-04-09T16:11:17.581Z,97.30
2023-04-09T16:13:45.152Z,97.60
2023-04-09T16:16:12.821Z,97.50
2023-04-09T16:18:40.790Z,97.80
2023-04-09T16:21:08.384Z,97.30
2023-04-09T16:23:36.029Z,97.00
2023-04-09T16:26:05.162Z,96.50
2023-04-09T16:28:32.796Z,96.30
2023-04-09T16:31:00.467Z,96.40
2023-04-09T16:33:28.293Z,96.60
2023-04-09T16:35:56.156Z,96.70
2023-04-09T16:38:23.965Z,96.50
2023-04-09T16:40:51.658Z,96.40
2023-04-09T16:43:19.278Z,96.60
2023-04-09T16:45:46.897Z,96.80
2023-04-09T16:48:14.880Z,96.70
2023-04-09T16:50:42.539Z,96.50
2023-04-09T16:53:10.245Z,96.20
2023-04-09T16:55:38.212Z,96.10
2023-04-09T16:58:05.804Z,96.00
2023-04-09T17:00:33.357Z,96.00
2023-04-09T17:03:01.159Z,95.80
2023-04-09T17:05:28.935Z,95.40
2023-04-09T17:07:56.504Z,95.30
2023-04-09T17:10:24.286Z,95.50
2023-04-09T17:12:51.931Z,95.80
2023-04-09T17:15:19.504Z,95.50
2023-04-09T17:17:47.242Z,95.50
2023-04-09T17:20:15.087Z,95.60
2023-04-09T17:22:42.716Z,95.70
2023-04-09T17:25:10.479Z,95.70
2023-04-09T17:27:38.062Z,95.80
2023-04-09T17:30:05.574Z,96.00
2023-04-09T17:32:33.870Z,95.80
2023-04-09T17:35:01.442Z,95.70
2023-04-09T17:37:29.039Z,95.80
2023-04-09T17:39:56.915Z,95.70
2023-04-09T17:42:24.493Z,95.50
2023-04-09T17:44:52.154Z,95.40
2023-04-09T17:47:20.171Z,95.50
2023-04-09T17:49:47.759Z,95.60
2023-04-09T17:52:15.205Z,95.90
2023-04-09T17:54:45.094Z,96.70
2023-04-09T17:57:13.329Z,97.40
2023-04-09T17:59:41.079Z,98.00
2023-04-09T18:02:09.240Z,99.20
2023-04-09T18:04:41.378Z,99.50
2023-04-09T18:07:12.306Z,99.90
2023-04-09T18:09:40.178Z,99.90
2023-04-09T18:12:08.696Z,99.90
2023-04-09T18:14:37.926Z,99.90
2023-04-09T18:17:05.856Z,99.90
2023-04-09T18:19:35.649Z,99.90
2023-04-09T18:22:03.790Z,99.70
2023-04-09T18:24:31.542Z,99.50
2023-04-09T18:26:59.222Z,99.90
2023-04-09T18:29:26.957Z,99.90
2023-04-09T18:31:54.528Z,99.90
2023-04-09T18:34:22.388Z,99.80
2023-04-09T18:36:51.179Z,99.70
2023-04-09T18:39:18.729Z,98.90
2023-04-09T18:41:46.278Z,98.50
2023-04-09T18:44:14.075Z,98.10
2023-04-09T18:46:41.658Z,97.60
2023-04-09T18:49:09.266Z,97.40
2023-04-09T18:51:37.031Z,96.90
2023-04-09T18:54:04.609Z,96.90
2023-04-09T18:56:32.245Z,97.50
2023-04-09T18:58:59.994Z,97.70
2023-04-09T19:01:27.621Z,97.70
2023-04-09T19:03:55.498Z,97.70
2023-04-09T19:06:25.160Z,97.80
2023-04-09T19:08:52.991Z,97.70
2023-04-09T19:11:20.976Z,97.60
2023-04-09T19:13:48.690Z,97.80
2023-04-09T19:16:16.310Z,97.90
2023-04-09T19:18:44.634Z,97.80
2023-04-09T19:21:12.331Z,97.80
2023-04-09T19:23:40.002Z,97.70
2023-04-09T19:26:07.596Z,97.40
2023-04-09T19:28:35.689Z,97.30
2023-04-09T19:31:04.048Z,96.90
2023-04-09T19:33:31.632Z,96.80
2023-04-09T19:36:00.048Z,96.40
2023-04-09T19:38:30.151Z,96.00
2023-04-09T19:40:57.872Z,96.40
2023-04-09T19:43:29.454Z,96.50
2023-04-09T19:45:57.180Z,96.50
2023-04-09T19:48:24.768Z,96.60
2023-04-09T19:50:52.928Z,96.80
2023-04-09T19:53:20.833Z,96.70
2023-04-09T19:55:49.287Z,96.80
2023-04-09T19:58:17.109Z,96.90
2023-04-09T20:00:44.836Z,96.80
2023-04-09T20:03:13.029Z,96.70
2023-04-09T20:05:41.176Z,96.50
2023-04-09T20:08:11.819Z,96.30
2023-04-09T20:10:42.064Z,96.50
2023-04-09T20:13:10.485Z,96.40
2023-04-09T20:15:38.080Z,96.40
2023-04-09T20:18:06.173Z,96.20
2023-04-09T20:20:34.461Z,96.10
2023-04-09T20:23:07.064Z,96.10
2023-04-09T20:25:40.273Z,96.20
2023-04-09T20:28:08.661Z,96.30
2023-04-09T20:30:45.558Z,96.40
2023-04-09T20:33:13.329Z,96.40
2023-04-09T20:35:40.938Z,96.80
2023-04-09T20:38:08.579Z,97.30
2023-04-09T20:40:36.623Z,98.00
2023-04-09T20:43:08.524Z,98.70
2023-04-09T20:45:36.348Z,99.20
2023-04-09T20:48:08.590Z,99.70
2023-04-09T20:50:36.369Z,99.90
2023-04-09T20:53:03.891Z,99.90
2023-04-09T20:55:31.805Z,99.90
2023-04-09T20:57:59.746Z,99.90
2023-04-09T21:00:27.382Z,99.90
2023-04-09T21:02:55.279Z,99.90
2023-04-09T21:05:24.151Z,99.90
2023-04-09T21:08:10.160Z,99.90
2023-04-09T21:10:57.948Z,99.90
2023-04-09T21:13:54.386Z,99.90
2023-04-09T21:16:42.697Z,99.90
2023-04-09T21:19:30.564Z,99.90
2023-04-09T21:22:18.326Z,99.90
2023-04-09T21:25:06.165Z,99.90
2023-04-09T21:27:53.938Z,99.90
2023-04-09T21:30:41.880Z,99.90
2023-04-09T21:33:30.151Z,99.90
2023-04-09T21:36:18.224Z,99.90
2023-04-09T21:39:06.015Z,99.90
2023-04-09T21:41:54.015Z,99.90
2023-04-09T21:44:41.789Z,99.90
2023-04-09T21:47:29.777Z,99.90
2023-04-09T21:50:17.659Z,99.90
2023-04-09T21:53:05.650Z,99.90
2023-04-09T21:55:53.455Z,99.90
2023-04-09T21:58:41.284Z,99.90
2023-04-09T22:01:29.601Z,99.90
2023-04-09T22:04:17.869Z,99.90
2023-04-09T22:07:05.690Z,99.90
2023-04-09T22:09:53.871Z,99.90
2023-04-09T22:12:41.646Z,99.90
2023-04-09T22:15:29.870Z,99.90
2023-04-09T22:18:17.658Z,99.90
2023-04-09T22:21:05.570Z,99.90
2023-04-09T22:23:53.311Z,99.90
2023-04-09T22:26:41.306Z,99.90
2023-04-09T22:29:29.074Z,99.90
2023-04-09T22:32:17.060Z,99.90
2023-04-09T22:35:04.818Z,99.90
2023-04-09T22:37:42.985Z,99.90
2023-04-09T22:40:16.824Z,99.90
2023-04-09T22:42:44.476Z,99.90
2023-04-09T22:45:12.326Z,99.90
2023-04-09T22:47:47.558Z,99.90
2023-04-09T22:50:24.603Z,99.90
2023-04-09T22:52:53.741Z,99.90
2023-04-09T22:55:29.072Z,99.90
2023-04-09T22:57:59.137Z,99.90
2023-04-09T23:00:28.022Z,99.90
2023-04-09T23:03:08.961Z,99.90
2023-04-09T23:05:48.432Z,99.90
2023-04-09T23:08:21.780Z,99.90
2023-04-09T23:10:50.415Z,99.90
2023-04-09T23:13:23.895Z,99.90
2023-04-09T23:15:52.968Z,99.90
2023-04-09T23:18:22.279Z,99.90
2023-04-09T23:20:50.223Z,99.90
2023-04-09T23:23:18.501Z,99.90
2023-04-09T23:25:52.542Z,99.90
2023-04-09T23:28:21.375Z,99.90
2023-04-09T23:30:57.563Z,99.90
2023-04-09T23:33:25.887Z,99.90
2023-04-09T23:35:54.865Z,99.90
2023-04-09T23:38:23.036Z,99.90
2023-04-09T23:40:50.861Z,99.90
2023-04-09T23:43:20.364Z,99.90
2023-04-09T23:45:48.608Z,99.90
2023-04-09T23:48:16.400Z,99.90
2023-04-09T23:50:47.313Z,99.90
2023-04-09T23:53:15.233Z,99.90
2023-04-09T23:55:44.534Z,99.90
2023-04-09T23:58:12.927Z,99.90
